sensor_id;sensor_type;location;lat;lon;timestamp;temperature;humidity
1546;DHT22;766;51.502;9.752;2022-12-18T00:00:29;-9.30;99.90
1546;DHT22;766;51.502;9.752;2022-12-18T00:03:13;-9.30;99.90
1546;DHT22;766;51.502;9.752;2022-12-18T00:05:53;-9.30;99.90
1546;DHT22;766;51.502;9.752;2022-12-18T00:08:30;-9.20;99.90
1546;DHT22;766;51.502;9.752;2022-12-18T00:11:14;-9.10;99.90
1546;DHT22;766;51.502;9.752;2022-12-18T00:16:44;-8.90;99.90
1546;DHT22;766;51.502;9.752;2022-12-18T00:19:23;-9.00;99.90
1546;DHT22;766;51.502;9.752;2022-12-18T00:22:02;-9.00;99.90
1546;DHT22;766;51.502;9.752;2022-12-18T00:24:35;-8.90;99.90
1546;DHT22;766;51.502;9.752;2022-12-18T00:27:09;-9.10;99.90
1546;DHT22;766;51.502;9.752;2022-12-18T00:29:46;-9.50;99.90
1546;DHT22;766;51.502;9.752;2022-12-18T00:32:37;-9.60;99.90
1546;DHT22;766;51.502;9.752;2022-12-18T00:35:13;-9.40;99.90
1546;DHT22;766;51.502;9.752;2022-12-18T00:37:44;-9.50;99.90
1546;DHT22;766;51.502;9.752;2022-12-18T00:40:16;-9.70;99.90
1546;DHT22;766;51.502;9.752;2022-12-18T00:42:47;-9.60;99.90
1546;DHT22;766;51.502;9.752;2022-12-18T00:45:27;-9.50;99.90
1546;DHT22;766;51.502;9.752;2022-12-18T00:48:01;-9.60;99.90
1546;DHT22;766;51.502;9.752;2022-12-18T00:50:44;-9.70;99.90
1546;DHT22;766;51.502;9.752;2022-12-18T00:53:16;-9.60;99.90
1546;DHT22;766;51.502;9.752;2022-12-18T00:55:48;-9.80;99.90
1546;DHT22;766;51.502;9.752;2022-12-18T00:58:35;-10.00;99.90
1546;DHT22;766;51.502;9.752;2022-12-18T01:01:05;-10.00;99.90
1546;DHT22;766;51.502;9.752;2022-12-18T01:03:34;-9.80;99.90
1546;DHT22;766;51.502;9.752;2022-12-18T01:06:06;-9.70;99.90
1546;DHT22;766;51.502;9.752;2022-12-18T01:08:34;-9.50;99.90
1546;DHT22;766;51.502;9.752;2022-12-18T01:11:08;-9.50;99.90
1546;DHT22;766;51.502;9.752;2022-12-18T01:13:38;-9.50;99.90
1546;DHT22;766;51.502;9.752;2022-12-18T01:16:07;-9.70;99.90
1546;DHT22;766;51.502;9.752;2022-12-18T01:18:36;-9.60;99.90
1546;DHT22;766;51.502;9.752;2022-12-18T01:21:06;-9.50;99.90
1546;DHT22;766;51.502;9.752;2022-12-18T01:23:35;-9.60;99.90
1546;DHT22;766;51.502;9.752;2022-12-18T01:26:05;-9.60;99.90
1546;DHT22;766;51.502;9.752;2022-12-18T01:28:34;-9.60;99.90
1546;DHT22;766;51.502;9.752;2022-12-18T01:31:16;-9.80;99.90
1546;DHT22;766;51.502;9.752;2022-12-18T01:33:45;-9.80;99.90
1546;DHT22;766;51.502;9.752;2022-12-18T01:36:18;-9.80;99.90
1546;DHT22;766;51.502;9.752;2022-12-18T01:38:47;-9.70;99.90
1546;DHT22;766;51.502;9.752;2022-12-18T01:41:17;-9.50;99.90
1546;DHT22;766;51.502;9.752;2022-12-18T01:43:50;-9.80;99.90
1546;DHT22;766;51.502;9.752;2022-12-18T01:46:22;-9.80;99.90
1546;DHT22;766;51.502;9.752;2022-12-18T01:48:55;-9.90;99.90
1546;DHT22;766;51.502;9.752;2022-12-18T01:51:26;-9.80;99.90
1546;DHT22;766;51.502;9.752;2022-12-18T01:53:56;-9.60;99.90
1546;DHT22;766;51.502;9.752;2022-12-18T01:56:25;-9.50;99.90
1546;DHT22;766;51.502;9.752;2022-12-18T01:58:56;-9.70;99.90
1546;DHT22;766;51.502;9.752;2022-12-18T02:01:29;-10.00;99.90
1546;DHT22;766;51.502;9.752;2022-12-18T02:04:19;-10.10;99.90
1546;DHT22;766;51.502;9.752;2022-12-18T02:06:51;-10.10;99.90
1546;DHT22;766;51.502;9.752;2022-12-18T02:09:27;-10.10;99.90
1546;DHT22;766;51.502;9.752;2022-12-18T02:11:59;-10.00;
1546;DHT22;766;51.502;9.752;2022-12-18T02:14:38;-10.00;99.90
1546;DHT22;766;51.502;9.752;2022-12-18T02:17:12;-9.90;99.90
1546;DHT22;766;51.502;9.752;2022-12-18T02:19:58;-9.80;99.90
1546;DHT22;766;51.502;9.752;2022-12-18T02:22:36;-9.90;99.90
1546;DHT22;766;51.502;9.752;2022-12-18T02:25:15;-10.00;99.90
1546;DHT22;766;51.502;9.752;2022-12-18T02:27:48;-9.90;99.90
1546;DHT22;766;51.502;9.752;2022-12-18T02:30:18;-9.90;99.90
1546;DHT22;766;51.502;9.752;2022-12-18T02:32:51;-9.90;99.90
1546;DHT22;766;51.502;9.752;2022-12-18T02:35:22;-9.90;99.90
1546;DHT22;766;51.502;9.752;2022-12-18T02:37:53;-9.90;99.90
1546;DHT22;766;51.502;9.752;2022-12-18T02:40:24;-9.80;99.90
1546;DHT22;766;51.502;9.752;2022-12-18T02:42:55;-10.10;99.90
1546;DHT22;766;51.502;9.752;2022-12-18T02:45:24;-9.90;99.90
1546;DHT22;766;51.502;9.752;2022-12-18T02:47:53;-9.90;99.90
1546;DHT22;766;51.502;9.752;2022-12-18T02:50:26;-10.00;99.90
1546;DHT22;766;51.502;9.752;2022-12-18T02:53:06;-10.20;99.90
1546;DHT22;766;51.502;9.752;2022-12-18T02:55:48;-10.30;99.90
1546;DHT22;766;51.502;9.752;2022-12-18T02:58:28;-10.10;99.90
1546;DHT22;766;51.502;9.752;2022-12-18T03:01:00;-10.00;99.90
1546;DHT22;766;51.502;9.752;2022-12-18T03:03:31;-9.90;99.90
1546;DHT22;766;51.502;9.752;2022-12-18T03:06:06;-10.10;99.90
1546;DHT22;766;51.502;9.752;2022-12-18T03:08:39;-10.00;99.90
1546;DHT22;766;51.502;9.752;2022-12-18T03:11:11;-10.10;99.90
1546;DHT22;766;51.502;9.752;2022-12-18T03:14:06;-10.30;99.90
1546;DHT22;766;51.502;9.752;2022-12-18T03:16:36;-10.30;99.90
1546;DHT22;766;51.502;9.752;2022-12-18T03:19:08;-10.30;99.90
1546;DHT22;766;51.502;9.752;2022-12-18T03:21:42;-10.20;99.90
1546;DHT22;766;51.502;9.752;2022-12-18T03:24:11;-10.30;99.90
1546;DHT22;766;51.502;9.752;2022-12-18T03:26:42;-10.40;99.90
1546;DHT22;766;51.502;9.752;2022-12-18T03:29:17;-10.30;99.90
1546;DHT22;766;51.502;9.752;2022-12-18T03:31:51;-10.10;99.90
1546;DHT22;766;51.502;9.752;2022-12-18T03:34:24;-9.90;99.90
1546;DHT22;766;51.502;9.752;2022-12-18T03:36:55;-9.80;99.90
1546;DHT22;766;51.502;9.752;2022-12-18T03:39:24;-9.70;99.90
1546;DHT22;766;51.502;9.752;2022-12-18T03:41:58;-9.90;99.90
1546;DHT22;766;51.502;9.752;2022-12-18T03:44:36;-10.00;99.90
1546;DHT22;766;51.502;9.752;2022-12-18T03:47:12;-10.10;99.90
1546;DHT22;766;51.502;9.752;2022-12-18T03:49:48;-10.00;99.90
1546;DHT22;766;51.502;9.752;2022-12-18T03:52:21;-10.10;99.90
1546;DHT22;766;51.502;9.752;2022-12-18T03:54:52;-10.10;99.90
1546;DHT22;766;51.502;9.752;2022-12-18T03:57:25;-10.10;99.90
1546;DHT22;766;51.502;9.752;2022-12-18T04:00:01;-10.00;99.90
1546;DHT22;766;51.502;9.752;2022-12-18T04:02:32;-9.90;99.90
1546;DHT22;766;51.502;9.752;2022-12-18T04:05:03;-9.90;99.90
1546;DHT22;766;51.502;9.752;2022-12-18T04:07:33;-9.90;99.90
1546;DHT22;766;51.502;9.752;2022-12-18T04:10:02;-10.00;99.90
1546;DHT22;766;51.502;9.752;2022-12-18T04:12:31;-10.00;99.90
1546;DHT22;766;51.502;9.752;2022-12-18T04:15:01;-10.00;99.90
1546;DHT22;766;51.502;9.752;2022-12-18T04:17:30;-10.10;99.90
1546;DHT22;766;51.502;9.752;2022-12-18T04:19:59;-10.00;99.90
1546;DHT22;766;51.502;9.752;2022-12-18T04:22:27;-10.00;99.90
1546;DHT22;766;51.502;9.752;2022-12-18T04:24:56;-10.00;99.90
1546;DHT22;766;51.502;9.752;2022-12-18T04:27:24;-10.20;99.90
1546;DHT22;766;51.502;9.752;2022-12-18T04:29:52;-10.40;99.90
1546;DHT22;766;51.502;9.752;2022-12-18T04:32:22;-10.40;99.90
1546;DHT22;766;51.502;9.752;2022-12-18T04:34:50;-10.30;99.90
1546;DHT22;766;51.502;9.752;2022-12-18T04:37:18;-10.20;99.90
1546;DHT22;766;51.502;9.752;2022-12-18T04:39:47;-10.10;99.90
1546;DHT22;766;51.502;9.752;2022-12-18T04:42:15;-10.10;99.90
1546;DHT22;766;51.502;9.752;2022-12-18T04:44:44;-10.20;99.90
1546;DHT22;766;51.502;9.752;2022-12-18T04:47:12;-10.20;99.90
1546;DHT22;766;51.502;9.752;2022-12-18T04:49:42;-10.30;99.90
1546;DHT22;766;51.502;9.752;2022-12-18T04:52:10;-10.40;99.90
1546;DHT22;766;51.502;9.752;2022-12-18T04:54:39;-10.50;99.90
1546;DHT22;766;51.502;9.752;2022-12-18T04:57:07;-10.60;99.90
1546;DHT22;766;51.502;9.752;2022-12-18T04:59:36;-10.50;99.90
1546;DHT22;766;51.502;9.752;2022-12-18T05:02:04;-10.30;99.90
1546;DHT22;766;51.502;9.752;2022-12-18T05:04:32;-10.20;99.90
1546;DHT22;766;51.502;9.752;2022-12-18T05:07:03;-10.10;99.90
1546;DHT22;766;51.502;9.752;2022-12-18T05:09:31;-10.20;99.90
1546;DHT22;766;51.502;9.752;2022-12-18T05:11:59;-10.20;99.90
1546;DHT22;766;51.502;9.752;2022-12-18T05:14:28;-10.40;99.90
1546;DHT22;766;51.502;9.752;2022-12-18T05:16:56;-10.40;99.90
1546;DHT22;766;51.502;9.752;2022-12-18T05:19:27;-10.40;99.90
1546;DHT22;766;51.502;9.752;2022-12-18T05:21:55;-10.40;99.90
1546;DHT22;766;51.502;9.752;2022-12-18T05:24:25;-10.60;99.90
1546;DHT22;766;51.502;9.752;2022-12-18T05:26:54;-10.60;99.90
1546;DHT22;766;51.502;9.752;2022-12-18T05:29:23;-10.40;99.90
1546;DHT22;766;51.502;9.752;2022-12-18T05:31:52;-10.40;99.90
1546;DHT22;766;51.502;9.752;2022-12-18T05:34:21;-10.50;99.90
1546;DHT22;766;51.502;9.752;2022-12-18T05:36:49;-10.50;99.90
1546;DHT22;766;51.502;9.752;2022-12-18T05:39:17;-10.50;99.90
1546;DHT22;766;51.502;9.752;2022-12-18T05:41:46;-10.50;99.90
1546;DHT22;766;51.502;9.752;2022-12-18T05:44:15;-10.40;99.90
1546;DHT22;766;51.502;9.752;2022-12-18T05:46:44;-10.30;99.90
1546;DHT22;766;51.502;9.752;2022-12-18T05:49:15;-10.30;99.90
1546;DHT22;766;51.502;9.752;2022-12-18T05:51:44;-10.60;99.90
1546;DHT22;766;51.502;9.752;2022-12-18T05:54:12;-10.60;99.90
1546;DHT22;766;51.502;9.752;2022-12-18T05:56:41;-10.80;99.90
1546;DHT22;766;51.502;9.752;2022-12-18T05:59:16;-10.80;99.90
1546;DHT22;766;51.502;9.752;2022-12-18T06:01:44;-11.00;99.90
1546;DHT22;766;51.502;9.752;2022-12-18T06:04:13;-11.00;99.90
1546;DHT22;766;51.502;9.752;2022-12-18T06:06:41;-10.80;99.90
1546;DHT22;766;51.502;9.752;2022-12-18T06:09:09;-10.90;99.90
1546;DHT22;766;51.502;9.752;2022-12-18T06:11:38;-10.80;99.90
1546;DHT22;766;51.502;9.752;2022-12-18T06:14:08;-10.70;99.90
1546;DHT22;766;51.502;9.752;2022-12-18T06:16:38;-10.70;99.90
1546;DHT22;766;51.502;9.752;2022-12-18T06:19:07;-10.80;99.90
1546;DHT22;766;51.502;9.752;2022-12-18T06:21:35;-11.10;99.90
1546;DHT22;766;51.502;9.752;2022-12-18T06:24:04;-11.10;99.90
1546;DHT22;766;51.502;9.752;2022-12-18T06:26:32;-11.10;99.90
1546;DHT22;766;51.502;9.752;2022-12-18T06:29:01;-11.00;99.90
1546;DHT22;766;51.502;9.752;2022-12-18T06:31:29;-11.10;99.90
1546;DHT22;766;51.502;9.752;2022-12-18T06:34:01;-10.90;99.90
1546;DHT22;766;51.502;9.752;2022-12-18T06:36:30;-10.90;99.90
1546;DHT22;766;51.502;9.752;2022-12-18T06:38:58;-11.00;99.90
1546;DHT22;766;51.502;9.752;2022-12-18T06:41:27;-11.00;99.90
1546;DHT22;766;51.502;9.752;2022-12-18T06:43:55;-10.80;99.90
1546;DHT22;766;51.502;9.752;2022-12-18T06:46:26;-10.90;99.90
1546;DHT22;766;51.502;9.752;2022-12-18T06:48:55;-10.90;99.90
1546;DHT22;766;51.502;9.752;2022-12-18T06:51:25;-10.90;99.90
1546;DHT22;766;51.502;9.752;2022-12-18T06:53:54;-11.10;99.90
1546;DHT22;766;51.502;9.752;2022-12-18T06:56:23;-11.20;99.90
1546;DHT22;766;51.502;9.752;2022-12-18T06:58:51;-11.10;99.90
1546;DHT22;766;51.502;9.752;2022-12-18T07:01:20;-11.10;99.90
1546;DHT22;766;51.502;9.752;2022-12-18T07:03:52;-11.00;99.90
1546;DHT22;766;51.502;9.752;2022-12-18T07:06:22;-10.90;99.90
1546;DHT22;766;51.502;9.752;2022-12-18T07:08:54;-10.90;99.90
1546;DHT22;766;51.502;9.752;2022-12-18T07:11:22;-10.80;99.90
1546;DHT22;766;51.502;9.752;2022-12-18T07:13:52;-10.50;99.90
1546;DHT22;766;51.502;9.752;2022-12-18T07:16:21;-10.40;99.90
1546;DHT22;766;51.502;9.752;2022-12-18T07:18:53;-9.70;99.90
1546;DHT22;766;51.502;9.752;2022-12-18T07:21:24;-9.80;99.90
1546;DHT22;766;51.502;9.752;2022-12-18T07:23:57;-9.90;99.90
1546;DHT22;766;51.502;9.752;2022-12-18T07:26:26;-10.10;99.90
1546;DHT22;766;51.502;9.752;2022-12-18T07:28:55;-10.20;99.90
1546;DHT22;766;51.502;9.752;2022-12-18T07:31:25;-10.30;99.90
1546;DHT22;766;51.502;9.752;2022-12-18T07:33:54;-10.40;99.90
1546;DHT22;766;51.502;9.752;2022-12-18T07:36:23;-10.50;99.90
1546;DHT22;766;51.502;9.752;2022-12-18T07:38:51;-10.50;99.90
1546;DHT22;766;51.502;9.752;2022-12-18T07:41:23;-10.60;99.90
1546;DHT22;766;51.502;9.752;2022-12-18T07:43:51;-10.40;99.90
1546;DHT22;766;51.502;9.752;2022-12-18T07:46:20;-10.50;99.90
1546;DHT22;766;51.502;9.752;2022-12-18T07:48:49;-10.80;99.90
1546;DHT22;766;51.502;9.752;2022-12-18T07:51:18;-10.90;99.90
1546;DHT22;766;51.502;9.752;2022-12-18T07:53:47;-10.80;99.90
1546;DHT22;766;51.502;9.752;2022-12-18T07:56:18;-10.80;99.90
1546;DHT22;766;51.502;9.752;2022-12-18T07:58:59;-10.80;99.90
1546;DHT22;766;51.502;9.752;2022-12-18T08:01:27;-10.80;99.90
1546;DHT22;766;51.502;9.752;2022-12-18T08:03:57;-10.60;99.90
1546;DHT22;766;51.502;9.752;2022-12-18T08:06:26;-10.30;99.90
1546;DHT22;766;51.502;9.752;2022-12-18T08:08:55;-10.20;99.90
1546;DHT22;766;51.502;9.752;2022-12-18T08:11:25;-8.10;99.90
1546;DHT22;766;51.502;9.752;2022-12-18T08:13:54;-8.00;99.90
1546;DHT22;766;51.502;9.752;2022-12-18T08:16:26;-8.20;99.90
1546;DHT22;766;51.502;9.752;2022-12-18T08:18:54;-7.90;99.90
1546;DHT22;766;51.502;9.752;2022-12-18T08:21:26;-7.40;99.90
1546;DHT22;766;51.502;9.752;2022-12-18T08:23:55;-7.30;99.90
1546;DHT22;766;51.502;9.752;2022-12-18T08:26:26;-6.70;99.90
1546;DHT22;766;51.502;9.752;2022-12-18T08:28:55;-6.60;99.90
1546;DHT22;766;51.502;9.752;2022-12-18T08:31:27;-6.30;99.90
1546;DHT22;766;51.502;9.752;2022-12-18T08:33:57;-6.30;99.90
1546;DHT22;766;51.502;9.752;2022-12-18T08:36:25;-6.80;99.90
1546;DHT22;766;51.502;9.752;2022-12-18T08:38:53;-7.10;99.90
1546;DHT22;766;51.502;9.752;2022-12-18T08:41:23;-6.80;99.90
1546;DHT22;766;51.502;9.752;2022-12-18T08:43:51;-6.50;99.90
1546;DHT22;766;51.502;9.752;2022-12-18T08:46:39;-6.10;99.90
1546;DHT22;766;51.502;9.752;2022-12-18T08:49:09;-6.10;99.90
1546;DHT22;766;51.502;9.752;2022-12-18T08:51:38;-6.10;99.90
1546;DHT22;766;51.502;9.752;2022-12-18T08:54:09;-6.10;99.90
1546;DHT22;766;51.502;9.752;2022-12-18T08:56:39;-6.00;99.90
1546;DHT22;766;51.502;9.752;2022-12-18T08:59:08;-5.90;99.90
1546;DHT22;766;51.502;9.752;2022-12-18T09:01:45;-5.60;99.90
1546;DHT22;766;51.502;9.752;2022-12-18T09:04:14;-5.40;99.90
1546;DHT22;766;51.502;9.752;2022-12-18T09:06:42;-5.40;99.90
1546;DHT22;766;51.502;9.752;2022-12-18T09:09:11;-5.40;99.90
1546;DHT22;766;51.502;9.752;2022-12-18T09:11:39;-5.30;99.90
1546;DHT22;766;51.502;9.752;2022-12-18T09:14:09;-5.20;99.90
1546;DHT22;766;51.502;9.752;2022-12-18T09:16:38;-5.10;99.90
1546;DHT22;766;51.502;9.752;2022-12-18T09:19:09;-5.00;99.90
1546;DHT22;766;51.502;9.752;2022-12-18T09:21:38;-5.00;99.90
1546;DHT22;766;51.502;9.752;2022-12-18T09:24:16;-5.00;99.90
1546;DHT22;766;51.502;9.752;2022-12-18T09:26:44;-5.00;99.90
1546;DHT22;766;51.502;9.752;2022-12-18T09:29:14;-4.90;99.90
1546;DHT22;766;51.502;9.752;2022-12-18T09:31:45;-4.90;99.90
1546;DHT22;766;51.502;9.752;2022-12-18T09:34:15;-5.00;99.90
1546;DHT22;766;51.502;9.752;2022-12-18T09:36:44;-5.00;99.90
1546;DHT22;766;51.502;9.752;2022-12-18T09:39:13;-4.80;99.90
1546;DHT22;766;51.502;9.752;2022-12-18T09:41:46;-4.70;99.90
1546;DHT22;766;51.502;9.752;2022-12-18T09:44:22;-4.70;99.90
1546;DHT22;766;51.502;9.752;2022-12-18T09:47:06;-4.60;99.90
1546;DHT22;766;51.502;9.752;2022-12-18T09:49:42;-4.50;99.90
1546;DHT22;766;51.502;9.752;2022-12-18T09:52:16;-4.30;99.90
1546;DHT22;766;51.502;9.752;2022-12-18T09:54:51;-4.20;99.90
1546;DHT22;766;51.502;9.752;2022-12-18T09:57:23;-4.30;99.90
1546;DHT22;766;51.502;9.752;2022-12-18T09:59:56;-4.20;99.90
1546;DHT22;766;51.502;9.752;2022-12-18T10:02:31;-4.00;99.90
1546;DHT22;766;51.502;9.752;2022-12-18T10:05:07;-3.80;99.90
1546;DHT22;766;51.502;9.752;2022-12-18T10:07:54;-3.50;99.90
1546;DHT22;766;51.502;9.752;2022-12-18T10:10:34;-3.40;99.90
1546;DHT22;766;51.502;9.752;2022-12-18T10:13:16;-3.30;99.90
1546;DHT22;766;51.502;9.752;2022-12-18T10:15:59;-3.30;99.90
1546;DHT22;766;51.502;9.752;2022-12-18T10:18:49;-3.00;99.90
1546;DHT22;766;51.502;9.752;2022-12-18T10:21:28;-2.80;99.90
1546;DHT22;766;51.502;9.752;2022-12-18T10:24:03;-2.40;99.90
1546;DHT22;766;51.502;9.752;2022-12-18T10:26:33;-2.30;99.90
1546;DHT22;766;51.502;9.752;2022-12-18T10:29:09;-2.30;99.90
1546;DHT22;766;51.502;9.752;2022-12-18T10:31:39;-2.30;99.90
1546;DHT22;766;51.502;9.752;2022-12-18T10:34:12;-2.30;99.90
1546;DHT22;766;51.502;9.752;2022-12-18T10:36:43;-2.20;99.90
1546;DHT22;766;51.502;9.752;2022-12-18T10:39:16;-2.10;99.90
1546;DHT22;766;51.502;9.752;2022-12-18T10:41:45;-2.10;99.90
1546;DHT22;766;51.502;9.752;2022-12-18T10:44:17;-2.20;99.90
1546;DHT22;766;51.502;9.752;2022-12-18T10:46:53;-2.20;99.90
1546;DHT22;766;51.502;9.752;2022-12-18T10:49:26;-2.30;99.90
1546;DHT22;766;51.502;9.752;2022-12-18T10:52:11;-2.20;99.90
1546;DHT22;766;51.502;9.752;2022-12-18T10:54:47;-2.20;99.90
1546;DHT22;766;51.502;9.752;2022-12-18T10:57:31;-2.20;99.90
1546;DHT22;766;51.502;9.752;2022-12-18T11:00:23;-2.00;99.90
1546;DHT22;766;51.502;9.752;2022-12-18T11:02:53;-1.90;99.90
1546;DHT22;766;51.502;9.752;2022-12-18T11:05:28;-1.80;99.90
1546;DHT22;766;51.502;9.752;2022-12-18T11:07:59;-1.90;99.90
1546;DHT22;766;51.502;9.752;2022-12-18T11:10:30;-1.80;99.90
1546;DHT22;766;51.502;9.752;2022-12-18T11:13:11;-1.70;99.90
1546;DHT22;766;51.502;9.752;2022-12-18T11:15:40;-1.50;99.90
1546;DHT22;766;51.502;9.752;2022-12-18T11:18:17;-1.50;99.90
1546;DHT22;766;51.502;9.752;2022-12-18T11:20:52;-1.40;99.90
1546;DHT22;766;51.502;9.752;2022-12-18T11:23:27;-1.30;99.90
1546;DHT22;766;51.502;9.752;2022-12-18T11:25:59;-1.60;99.90
1546;DHT22;766;51.502;9.752;2022-12-18T11:28:36;-1.80;99.90
1546;DHT22;766;51.502;9.752;2022-12-18T11:31:22;-1.60;99.90
1546;DHT22;766;51.502;9.752;2022-12-18T11:33:58;-1.80;99.90
1546;DHT22;766;51.502;9.752;2022-12-18T11:36:48;-1.80;99.90
1546;DHT22;766;51.502;9.752;2022-12-18T11:39:22;-1.80;99.90
1546;DHT22;766;51.502;9.752;2022-12-18T11:41:54;-1.90;99.90
1546;DHT22;766;51.502;9.752;2022-12-18T11:44:43;-2.00;99.90
1546;DHT22;766;51.502;9.752;2022-12-18T11:47:22;-1.80;99.90
1546;DHT22;766;51.502;9.752;2022-12-18T11:49:56;-1.70;99.90
1546;DHT22;766;51.502;9.752;2022-12-18T11:52:33;-2.00;99.90
1546;DHT22;766;51.502;9.752;2022-12-18T11:55:11;-2.10;99.90
1546;DHT22;766;51.502;9.752;2022-12-18T11:57:45;-2.00;99.90
1546;DHT22;766;51.502;9.752;2022-12-18T12:00:19;-2.20;99.90
1546;DHT22;766;51.502;9.752;2022-12-18T12:03:09;-2.30;99.90
1546;DHT22;766;51.502;9.752;2022-12-18T12:05:56;-2.40;99.90
1546;DHT22;766;51.502;9.752;2022-12-18T12:08:34;-2.50;99.90
1546;DHT22;766;51.502;9.752;2022-12-18T12:11:13;-2.60;99.90
1546;DHT22;766;51.502;9.752;2022-12-18T12:13:58;-2.50;99.90
1546;DHT22;766;51.502;9.752;2022-12-18T12:16:34;-2.30;99.90
1546;DHT22;766;51.502;9.752;2022-12-18T12:19:19;-2.40;99.90
1546;DHT22;766;51.502;9.752;2022-12-18T12:21:53;-2.50;99.90
1546;DHT22;766;51.502;9.752;2022-12-18T12:24:30;-2.40;99.90
1546;DHT22;766;51.502;9.752;2022-12-18T12:27:06;-2.20;99.90
1546;DHT22;766;51.502;9.752;2022-12-18T12:29:46;-2.40;99.90
1546;DHT22;766;51.502;9.752;2022-12-18T12:32:30;-2.40;99.90
1546;DHT22;766;51.502;9.752;2022-12-18T12:35:12;-2.30;99.90
1546;DHT22;766;51.502;9.752;2022-12-18T12:37:52;-2.30;99.90
1546;DHT22;766;51.502;9.752;2022-12-18T12:40:28;-2.40;99.90
1546;DHT22;766;51.502;9.752;2022-12-18T12:43:35;-2.30;99.90
1546;DHT22;766;51.502;9.752;2022-12-18T12:46:17;-2.30;99.90
1546;DHT22;766;51.502;9.752;2022-12-18T12:48:50;-2.10;99.90
1546;DHT22;766;51.502;9.752;2022-12-18T12:51:21;-2.10;99.90
1546;DHT22;766;51.502;9.752;2022-12-18T12:53:52;-2.00;99.90
1546;DHT22;766;51.502;9.752;2022-12-18T12:56:22;-1.90;99.90
1546;DHT22;766;51.502;9.752;2022-12-18T12:58:59;-1.90;99.90
1546;DHT22;766;51.502;9.752;2022-12-18T13:01:36;-1.90;99.90
1546;DHT22;766;51.502;9.752;2022-12-18T13:04:19;-2.10;99.90
1546;DHT22;766;51.502;9.752;2022-12-18T13:06:54;-2.10;99.90
1546;DHT22;766;51.502;9.752;2022-12-18T13:09:30;-2.10;99.90
1546;DHT22;766;51.502;9.752;2022-12-18T13:12:03;-2.00;99.90
1546;DHT22;766;51.502;9.752;2022-12-18T13:14:51;-2.00;99.90
1546;DHT22;766;51.502;9.752;2022-12-18T13:17:27;-2.00;99.90
1546;DHT22;766;51.502;9.752;2022-12-18T13:20:09;-2.00;99.90
1546;DHT22;766;51.502;9.752;2022-12-18T13:22:42;-1.90;99.90
1546;DHT22;766;51.502;9.752;2022-12-18T13:25:33;-1.90;99.90
1546;DHT22;766;51.502;9.752;2022-12-18T13:28:07;-1.80;99.90
1546;DHT22;766;51.502;9.752;2022-12-18T13:30:49;-1.90;99.90
1546;DHT22;766;51.502;9.752;2022-12-18T13:33:37;-2.00;99.90
1546;DHT22;766;51.502;9.752;2022-12-18T13:36:30;-1.90;99.90
1546;DHT22;766;51.502;9.752;2022-12-18T13:39:24;-2.00;99.90
1546;DHT22;766;51.502;9.752;2022-12-18T13:42:34;-2.00;99.90
1546;DHT22;766;51.502;9.752;2022-12-18T13:45:42;-2.10;99.90
1546;DHT22;766;51.502;9.752;2022-12-18T13:48:20;-2.00;99.90
1546;DHT22;766;51.502;9.752;2022-12-18T13:50:57;-2.00;99.90
1546;DHT22;766;51.502;9.752;2022-12-18T13:53:30;-2.00;99.90
1546;DHT22;766;51.502;9.752;2022-12-18T13:55:58;-2.00;99.90
1546;DHT22;766;51.502;9.752;2022-12-18T13:58:27;-2.00;99.90
1546;DHT22;766;51.502;9.752;2022-12-18T14:00:56;-2.00;99.90
1546;DHT22;766;51.502;9.752;2022-12-18T14:03:29;-2.00;99.90
1546;DHT22;766;51.502;9.752;2022-12-18T14:06:01;-2.00;99.90
1546;DHT22;766;51.502;9.752;2022-12-18T14:08:38;-2.00;99.90
1546;DHT22;766;51.502;9.752;2022-12-18T14:11:18;-1.90;99.90
1546;DHT22;766;51.502;9.752;2022-12-18T14:13:48;-2.10;99.90
1546;DHT22;766;51.502;9.752;2022-12-18T14:16:17;-2.10;99.90
1546;DHT22;766;51.502;9.752;2022-12-18T14:18:51;-2.20;99.90
1546;DHT22;766;51.502;9.752;2022-12-18T14:21:26;-2.10;99.90
1546;DHT22;766;51.502;9.752;2022-12-18T14:24:11;-2.10;99.90
1546;DHT22;766;51.502;9.752;2022-12-18T14:26:41;-2.10;99.90
1546;DHT22;766;51.502;9.752;2022-12-18T14:29:22;-2.10;99.90
1546;DHT22;766;51.502;9.752;2022-12-18T14:32:07;-2.10;99.90
1546;DHT22;766;51.502;9.752;2022-12-18T14:34:45;-2.10;99.90
1546;DHT22;766;51.502;9.752;2022-12-18T14:37:16;-2.10;99.90
1546;DHT22;766;51.502;9.752;2022-12-18T14:39:55;-2.10;99.90
1546;DHT22;766;51.502;9.752;2022-12-18T14:42:25;-2.10;99.90
1546;DHT22;766;51.502;9.752;2022-12-18T14:45:33;-2.20;99.90
1546;DHT22;766;51.502;9.752;2022-12-18T14:48:11;-2.20;99.90
1546;DHT22;766;51.502;9.752;2022-12-18T14:50:59;-2.20;99.90
1546;DHT22;766;51.502;9.752;2022-12-18T14:53:39;-2.20;99.90
1546;DHT22;766;51.502;9.752;2022-12-18T14:56:16;-2.20;99.90
1546;DHT22;766;51.502;9.752;2022-12-18T14:58:46;-2.20;99.90
1546;DHT22;766;51.502;9.752;2022-12-18T15:01:20;-2.30;99.90
1546;DHT22;766;51.502;9.752;2022-12-18T15:03:51;-2.30;99.90
1546;DHT22;766;51.502;9.752;2022-12-18T15:06:28;-2.30;99.90
1546;DHT22;766;51.502;9.752;2022-12-18T15:08:57;-2.40;99.90
1546;DHT22;766;51.502;9.752;2022-12-18T15:11:28;-2.40;99.90
1546;DHT22;766;51.502;9.752;2022-12-18T15:13:58;-2.40;99.90
1546;DHT22;766;51.502;9.752;2022-12-18T15:16:27;-2.40;99.90
1546;DHT22;766;51.502;9.752;2022-12-18T15:18:56;-2.40;99.90
1546;DHT22;766;51.502;9.752;2022-12-18T15:21:30;-2.40;99.90
1546;DHT22;766;51.502;9.752;2022-12-18T15:23:58;-2.40;99.90
1546;DHT22;766;51.502;9.752;2022-12-18T15:26:36;-2.50;99.90
1546;DHT22;766;51.502;9.752;2022-12-18T15:29:15;-2.50;99.90
1546;DHT22;766;51.502;9.752;2022-12-18T15:32:01;-2.50;99.90
1546;DHT22;766;51.502;9.752;2022-12-18T15:34:30;-2.50;99.90
1546;DHT22;766;51.502;9.752;2022-12-18T15:37:02;-2.50;99.90
1546;DHT22;766;51.502;9.752;2022-12-18T15:39:31;-2.50;99.90
1546;DHT22;766;51.502;9.752;2022-12-18T15:42:01;-2.50;99.90
1546;DHT22;766;51.502;9.752;2022-12-18T15:44:46;-2.50;99.90
1546;DHT22;766;51.502;9.752;2022-12-18T15:47:15;-2.60;99.90
1546;DHT22;766;51.502;9.752;2022-12-18T15:49:43;-2.60;99.90
1546;DHT22;766;51.502;9.752;2022-12-18T15:52:14;-2.50;99.90
1546;DHT22;766;51.502;9.752;2022-12-18T15:54:53;-2.60;99.90
1546;DHT22;766;51.502;9.752;2022-12-18T15:57:53;-2.60;99.90
1546;DHT22;766;51.502;9.752;2022-12-18T16:00:22;-2.50;99.90
1546;DHT22;766;51.502;9.752;2022-12-18T16:02:51;-2.60;99.90
1546;DHT22;766;51.502;9.752;2022-12-18T16:05:20;-2.50;99.90
1546;DHT22;766;51.502;9.752;2022-12-18T16:07:51;-2.50;99.90
1546;DHT22;766;51.502;9.752;2022-12-18T16:10:20;-2.60;99.90
1546;DHT22;766;51.502;9.752;2022-12-18T16:12:48;-2.70;99.90
1546;DHT22;766;51.502;9.752;2022-12-18T16:15:17;-2.70;99.90
1546;DHT22;766;51.502;9.752;2022-12-18T16:17:51;-2.70;99.90
1546;DHT22;766;51.502;9.752;2022-12-18T16:20:21;-2.70;99.90
1546;DHT22;766;51.502;9.752;2022-12-18T16:22:51;-2.70;99.90
1546;DHT22;766;51.502;9.752;2022-12-18T16:25:25;-2.70;99.90
1546;DHT22;766;51.502;9.752;2022-12-18T16:27:55;-2.70;99.90
1546;DHT22;766;51.502;9.752;2022-12-18T16:30:25;-2.70;99.90
1546;DHT22;766;51.502;9.752;2022-12-18T16:32:58;-2.70;99.90
1546;DHT22;766;51.502;9.752;2022-12-18T16:35:26;-2.70;99.90
1546;DHT22;766;51.502;9.752;2022-12-18T16:37:56;-2.70;99.90
1546;DHT22;766;51.502;9.752;2022-12-18T16:40:25;-2.70;99.90
1546;DHT22;766;51.502;9.752;2022-12-18T16:42:53;-2.80;99.90
1546;DHT22;766;51.502;9.752;2022-12-18T16:45:27;-2.80;99.90
1546;DHT22;766;51.502;9.752;2022-12-18T16:48:00;-2.70;99.90
1546;DHT22;766;51.502;9.752;2022-12-18T16:50:28;-2.70;99.90
1546;DHT22;766;51.502;9.752;2022-12-18T16:52:59;-2.70;99.90
1546;DHT22;766;51.502;9.752;2022-12-18T16:55:27;-2.60;99.90